createdAt,value
2023-03-08T00:01:15.624Z,2.67
2023-03-08T00:03:42.769Z,2.05
2023-03-08T00:06:12.341Z,2.80
2023-03-08T00:08:39.292Z,2.33
2023-03-08T00:11:07.562Z,2.45
2023-03-08T00:13:34.492Z,1.52
2023-03-08T00:16:03.924Z,2.50
2023-03-08T00:18:30.659Z,2.25
2023-03-08T00:21:00.974Z,1.30
2023-03-08T00:23:27.793Z,1.77
2023-03-08T00:25:54.849Z,2.92
2023-03-08T00:28:21.696Z,1.98
2023-03-08T00:30:59.489Z,2.00
2023-03-08T00:33:27.207Z,1.60
2023-03-08T00:35:59.871Z,2.50
2023-03-08T00:40:53.435Z,2.10
2023-03-08T00:43:20.604Z,2.65
2023-03-08T00:45:48.764Z,2.20
2023-03-08T00:48:16.898Z,2.85
2023-03-08T00:50:44.603Z,1.95
2023-03-08T00:53:11.894Z,1.52
2023-03-08T00:55:52.335Z,3.30
2023-03-08T00:58:20.096Z,2.25
2023-03-08T01:00:47.266Z,1.77
2023-03-08T01:03:14.490Z,1.95
2023-03-08T01:05:42.712Z,1.77
2023-03-08T01:08:09.636Z,1.92
2023-03-08T01:10:36.349Z,1.88
2023-03-08T01:13:04.937Z,2.88
2023-03-08T01:15:35.865Z,2.75
2023-03-08T01:18:05.490Z,2.13
2023-03-08T01:20:32.287Z,2.20
2023-03-08T01:22:58.987Z,1.40
2023-03-08T01:25:25.697Z,2.03
2023-03-08T01:27:52.494Z,2.25
2023-03-08T01:30:19.287Z,3.58
2023-03-08T01:32:45.980Z,2.58
2023-03-08T01:35:12.615Z,1.15
2023-03-08T01:37:39.270Z,2.00
2023-03-08T01:40:06.904Z,2.83
2023-03-08T01:42:33.657Z,2.35
2023-03-08T01:45:05.532Z,2.13
2023-03-08T01:50:12.175Z,1.85
2023-03-08T01:52:49.000Z,1.25
2023-03-08T01:55:16.673Z,2.40
2023-03-08T01:57:50.126Z,1.80
2023-03-08T02:00:24.370Z,1.23
2023-03-08T02:02:59.996Z,1.35
2023-03-08T02:05:28.335Z,2.28
2023-03-08T02:08:01.077Z,1.42
2023-03-08T02:10:32.397Z,2.20
2023-03-08T02:12:59.123Z,1.80
2023-03-08T02:15:25.796Z,2.28
2023-03-08T02:17:55.938Z,2.78
2023-03-08T02:20:30.768Z,1.48
2023-03-08T02:23:13.953Z,1.83
2023-03-08T02:25:42.890Z,2.80
2023-03-08T02:28:09.527Z,2.45
2023-03-08T02:30:37.777Z,2.40
2023-03-08T02:33:04.479Z,1.80
2023-03-08T02:35:32.127Z,3.15
2023-03-08T02:37:58.807Z,2.35
2023-03-08T02:40:25.630Z,2.22
2023-03-08T02:42:53.608Z,2.40
2023-03-08T02:45:20.379Z,2.60
2023-03-08T02:47:47.010Z,2.85
2023-03-08T02:50:13.853Z,2.60
2023-03-08T02:52:40.510Z,2.00
2023-03-08T02:55:08.079Z,2.75
2023-03-08T02:57:34.773Z,2.90
2023-03-08T03:00:04.077Z,1.23
2023-03-08T03:02:33.027Z,3.13
2023-03-08T03:04:59.645Z,2.60
2023-03-08T03:07:28.153Z,2.88
2023-03-08T03:09:55.360Z,3.70
2023-03-08T03:12:22.097Z,2.45
2023-03-08T03:14:49.000Z,1.75
2023-03-08T03:17:16.170Z,3.30
2023-03-08T03:19:43.027Z,2.90
2023-03-08T03:22:09.722Z,3.58
2023-03-08T03:24:37.613Z,2.30
2023-03-08T03:27:06.094Z,2.47
2023-03-08T03:29:37.568Z,2.65
2023-03-08T03:32:14.555Z,2.38
2023-03-08T03:34:41.430Z,3.90
2023-03-08T03:37:08.585Z,2.97
2023-03-08T03:39:39.880Z,3.58
2023-03-08T03:42:09.980Z,3.05
2023-03-08T03:49:37.910Z,2.67
2023-03-08T03:52:04.774Z,2.58
2023-03-08T03:54:38.336Z,2.38
2023-03-08T03:59:36.079Z,1.50
2023-03-08T04:02:03.440Z,2.88
2023-03-08T04:04:38.622Z,1.73
2023-03-08T04:07:05.781Z,2.47
2023-03-08T04:09:37.985Z,3.03
2023-03-08T04:12:12.374Z,2.08
2023-03-08T04:14:40.473Z,2.50
2023-03-08T04:17:08.867Z,1.65
2023-03-08T04:19:50.361Z,2.10
2023-03-08T04:22:18.321Z,2.03
2023-03-08T04:24:50.928Z,2.20
2023-03-08T04:27:23.811Z,1.63
2023-03-08T04:29:50.634Z,2.50
2023-03-08T04:32:17.470Z,1.48
2023-03-08T04:34:48.715Z,2.67
2023-03-08T04:37:19.146Z,2.17
2023-03-08T04:39:49.625Z,2.13
2023-03-08T04:42:17.489Z,1.63
2023-03-08T04:44:45.444Z,2.00
2023-03-08T04:47:14.460Z,0.60
2023-03-08T04:49:45.649Z,2.13
2023-03-08T04:52:13.011Z,2.10
2023-03-08T04:54:41.123Z,1.20
2023-03-08T04:57:16.321Z,1.10
2023-03-08T04:59:44.008Z,1.30
2023-03-08T05:02:11.618Z,1.90
2023-03-08T05:04:38.808Z,1.45
2023-03-08T05:07:06.506Z,1.40
2023-03-08T05:09:35.746Z,1.80
2023-03-08T05:12:02.475Z,1.75
2023-03-08T05:14:49.688Z,1.90
2023-03-08T05:17:16.813Z,1.63
2023-03-08T05:19:44.693Z,1.90
2023-03-08T05:22:13.507Z,2.50
2023-03-08T05:24:46.416Z,1.33
2023-03-08T05:27:14.186Z,2.10
2023-03-08T05:29:41.304Z,1.50
2023-03-08T05:32:12.302Z,2.25
2023-03-08T05:34:40.106Z,1.85
2023-03-08T05:37:10.250Z,1.70
2023-03-08T05:39:38.762Z,1.08
2023-03-08T05:42:14.246Z,1.77
2023-03-08T05:44:43.630Z,1.58
2023-03-08T05:47:12.572Z,1.17
2023-03-08T05:49:39.805Z,1.67
2023-03-08T05:54:35.308Z,2.50
2023-03-08T05:57:07.432Z,2.20
2023-03-08T05:59:35.336Z,1.58
2023-03-08T06:02:03.936Z,1.77
2023-03-08T06:04:52.369Z,1.33
2023-03-08T06:07:21.656Z,1.92
2023-03-08T06:09:55.426Z,0.95
2023-03-08T06:12:23.454Z,1.40
2023-03-08T06:14:54.277Z,1.27
2023-03-08T06:17:23.674Z,0.82
2023-03-08T06:19:51.632Z,1.30
2023-03-08T06:22:18.843Z,5.13
2023-03-08T06:24:49.627Z,4.38
2023-03-08T06:27:20.934Z,3.80
2023-03-08T06:29:50.917Z,3.85
2023-03-08T06:32:18.039Z,4.65
2023-03-08T06:34:47.079Z,4.45
2023-03-08T06:37:14.505Z,3.75
2023-03-08T06:39:41.172Z,3.53
2023-03-08T06:42:08.136Z,3.05
2023-03-08T06:44:35.472Z,4.85
2023-03-08T06:47:02.107Z,3.83
2023-03-08T06:49:28.714Z,3.20
2023-03-08T06:51:55.487Z,3.55
2023-03-08T06:54:24.216Z,2.67
2023-03-08T06:56:51.207Z,2.85
2023-03-08T06:59:17.856Z,3.17
2023-03-08T07:01:44.642Z,3.08
2023-03-08T07:04:11.409Z,1.80
2023-03-08T07:06:38.161Z,1.95
2023-03-08T07:09:04.762Z,2.40
2023-03-08T07:11:33.952Z,1.90
2023-03-08T07:14:00.575Z,2.78
2023-03-08T07:16:27.280Z,3.45
2023-03-08T07:18:53.888Z,1.85
2023-03-08T07:21:20.610Z,1.98
2023-03-08T07:23:47.206Z,2.47
2023-03-08T07:26:13.826Z,1.45
2023-03-08T07:28:40.724Z,2.10
2023-03-08T07:31:11.165Z,1.80
2023-03-08T07:33:37.947Z,2.10
2023-03-08T07:36:04.929Z,1.75
2023-03-08T07:38:31.657Z,2.08
2023-03-08T07:40:58.289Z,1.75
2023-03-08T07:43:25.245Z,2.15
2023-03-08T07:48:26.090Z,1.33
2023-03-08T07:50:52.734Z,1.20
2023-03-08T07:53:19.452Z,1.50
2023-03-08T07:55:46.136Z,0.75
2023-03-08T07:58:13.034Z,0.90
2023-03-08T08:00:39.697Z,0.90
2023-03-08T08:03:06.384Z,1.58
2023-03-08T08:05:35.520Z,1.10
2023-03-08T08:08:02.385Z,0.90
2023-03-08T08:10:29.568Z,0.98
2023-03-08T08:12:56.206Z,1.02
2023-03-08T08:15:25.257Z,0.90
2023-03-08T08:17:52.703Z,0.75
2023-03-08T08:20:19.304Z,0.68
2023-03-08T08:22:46.018Z,0.40
2023-03-08T08:25:12.686Z,1.08
2023-03-08T08:27:39.557Z,0.88
2023-03-08T08:30:07.028Z,0.50
2023-03-08T08:32:35.375Z,0.70
2023-03-08T08:35:02.247Z,0.57
2023-03-08T08:37:30.709Z,0.60
2023-03-08T08:39:57.642Z,0.50
2023-03-08T08:42:24.554Z,0.57
2023-03-08T08:44:53.136Z,0.35
2023-03-08T08:47:19.922Z,0.50
2023-03-08T08:49:46.504Z,0.20
2023-03-08T08:52:13.142Z,0.30
2023-03-08T08:54:40.141Z,0.50
2023-03-08T08:57:07.252Z,0.47
2023-03-08T08:59:34.146Z,0.35
2023-03-08T09:02:00.864Z,0.85
2023-03-08T09:06:54.307Z,0.45
2023-03-08T09:09:21.029Z,0.50
2023-03-08T09:11:54.787Z,0.30
2023-03-08T09:14:22.599Z,0.30
2023-03-08T09:16:49.384Z,0.40
2023-03-08T09:19:16.247Z,0.30
2023-03-08T09:21:42.941Z,0.22
2023-03-08T09:24:11.417Z,0.40
2023-03-08T09:26:38.206Z,0.30
2023-03-08T09:29:05.689Z,0.50
2023-03-08T09:31:36.977Z,0.40
2023-03-08T09:34:09.485Z,0.20
2023-03-08T09:36:37.323Z,0.30
2023-03-08T09:39:04.129Z,0.25
2023-03-08T09:41:52.976Z,0.45
2023-03-08T09:44:35.077Z,0.52
2023-03-08T09:47:16.372Z,0.20
2023-03-08T09:49:45.513Z,0.57
2023-03-08T09:55:03.376Z,0.35
2023-03-08T09:57:47.021Z,0.45
2023-03-08T10:00:23.602Z,0.40
2023-03-08T10:03:15.339Z,0.43
2023-03-08T10:05:42.023Z,0.57
2023-03-08T10:08:14.459Z,0.30
2023-03-08T10:13:24.819Z,0.30
2023-03-08T10:15:53.016Z,0.30
2023-03-08T10:18:26.717Z,0.52
2023-03-08T17:25:58.604Z,2.53
2023-03-08T17:30:51.841Z,0.28
2023-03-08T17:33:18.542Z,0.30
2023-03-08T17:35:45.375Z,0.77
2023-03-08T17:38:12.239Z,0.40
2023-03-08T17:40:40.328Z,0.60
2023-03-08T17:43:07.006Z,0.60
2023-03-08T17:45:33.685Z,0.50
2023-03-08T18:00:19.753Z,0.50
2023-03-08T18:02:46.574Z,0.40
2023-03-08T18:05:13.486Z,0.10
2023-03-08T18:07:41.886Z,0.30
2023-03-08T18:10:11.032Z,3.08
2023-03-08T18:12:37.725Z,0.10
2023-03-08T18:15:04.866Z,0.35
2023-03-08T18:17:34.136Z,0.15
2023-03-08T18:20:01.388Z,0.20
2023-03-08T18:22:28.024Z,0.30
2023-03-08T18:24:54.577Z,0.10
2023-03-08T18:27:21.288Z,0.30
2023-03-08T18:29:48.042Z,0.30
2023-03-08T18:32:14.749Z,0.47
2023-03-08T18:34:41.621Z,0.40
2023-03-08T18:37:08.325Z,0.45
2023-03-08T18:39:35.042Z,0.40
2023-03-08T18:42:02.272Z,0.20
2023-03-08T18:44:28.924Z,0.28
2023-03-08T18:46:55.709Z,0.20
2023-03-08T18:49:22.555Z,0.40
2023-03-08T18:51:49.438Z,0.10
2023-03-08T18:54:17.434Z,0.20
2023-03-08T18:56:44.675Z,0.30
2023-03-08T18:59:13.652Z,0.50
2023-03-08T19:01:40.792Z,0.20
2023-03-08T19:04:08.153Z,0.55
2023-03-08T19:06:36.112Z,0.82
2023-03-08T19:09:10.147Z,0.50
2023-03-08T19:11:36.998Z,0.30
2023-03-08T19:14:03.676Z,0.30
2023-03-08T19:16:32.546Z,0.57
2023-03-08T19:19:05.535Z,0.32
2023-03-08T19:21:38.286Z,0.22
2023-03-08T19:24:05.198Z,0.60
2023-03-08T19:26:37.351Z,0.30
2023-03-08T19:29:16.927Z,0.50
2023-03-08T19:31:46.337Z,0.65
2023-03-08T19:34:13.827Z,0.50
2023-03-08T19:36:41.835Z,0.60
2023-03-08T19:39:11.116Z,0.55
2023-03-08T19:41:37.882Z,0.17
2023-03-08T19:44:07.061Z,0.70
2023-03-08T19:46:35.309Z,1.08
2023-03-08T19:49:02.239Z,0.75
2023-03-08T19:51:28.867Z,0.65
2023-03-08T19:53:55.869Z,0.52
2023-03-08T19:56:24.454Z,1.40
2023-03-08T19:58:56.849Z,0.45
2023-03-08T20:01:24.075Z,1.00
2023-03-08T20:03:50.896Z,1.45
2023-03-08T20:06:47.544Z,2.70
2023-03-08T20:09:21.526Z,2.08
2023-03-08T20:11:57.460Z,1.25
2023-03-08T20:14:27.052Z,0.90
2023-03-08T20:16:54.150Z,0.13
2023-03-08T20:19:21.052Z,0.57
2023-03-08T20:21:48.369Z,0.55
2023-03-08T20:24:18.254Z,0.50
2023-03-08T20:26:45.528Z,0.93
2023-03-08T20:29:12.167Z,1.80
2023-03-08T20:31:38.928Z,1.05
2023-03-08T20:34:05.570Z,0.52
2023-03-08T20:36:32.360Z,0.40
2023-03-08T20:38:59.956Z,0.40
2023-03-08T20:41:27.911Z,0.32
2023-03-08T20:43:57.590Z,0.63
2023-03-08T20:46:27.529Z,0.60
2023-03-08T20:48:54.418Z,1.00
2023-03-08T20:51:22.231Z,0.40
2023-03-08T20:53:52.696Z,0.55
2023-03-08T20:56:21.449Z,0.03
2023-03-08T20:58:48.429Z,0.43
2023-03-08T21:01:33.361Z,0.65
2023-03-08T21:04:00.269Z,0.50
2023-03-08T21:06:30.739Z,0.35
2023-03-08T21:11:24.199Z,0.70
2023-03-08T21:13:51.779Z,0.40
2023-03-08T21:16:20.762Z,1.02
2023-03-08T21:18:51.166Z,0.00
2023-03-08T21:21:30.147Z,1.00
2023-03-08T21:23:58.639Z,0.73
2023-03-08T21:26:26.659Z,0.60
2023-03-08T21:28:55.851Z,0.73
2023-03-08T21:31:23.550Z,1.00
2023-03-08T21:33:50.203Z,0.55
2023-03-08T21:36:17.288Z,0.43
2023-03-08T21:38:44.328Z,0.55
2023-03-08T21:41:22.014Z,0.13
2023-03-08T21:43:48.809Z,0.35
2023-03-08T21:46:16.004Z,0.30
2023-03-08T21:48:42.702Z,0.50
2023-03-08T21:51:10.462Z,0.60
2023-03-08T21:53:37.633Z,0.10
2023-03-08T21:56:08.914Z,0.63
2023-03-08T21:58:36.633Z,0.40
2023-03-08T22:01:03.877Z,0.38
2023-03-08T22:03:31.344Z,0.30
2023-03-08T22:05:58.261Z,0.20
2023-03-08T22:08:25.208Z,0.20
2023-03-08T22:10:52.867Z,0.90
2023-03-08T22:13:19.797Z,0.45
2023-03-08T22:15:46.546Z,0.40
2023-03-08T22:18:13.252Z,0.40
2023-03-08T22:20:39.891Z,0.50
2023-03-08T22:23:06.553Z,0.57
2023-03-08T22:25:33.312Z,0.40
2023-03-08T22:28:00.318Z,0.40
2023-03-08T22:30:27.044Z,0.40
2023-03-08T22:32:54.468Z,0.50
2023-03-08T22:35:22.176Z,0.00
2023-03-08T22:37:49.378Z,0.38
2023-03-08T22:40:18.374Z,0.25
2023-03-08T22:42:46.172Z,0.50
2023-03-08T22:45:13.582Z,0.10
2023-03-08T22:47:40.331Z,0.20
2023-03-08T22:50:07.328Z,0.55
2023-03-08T22:52:34.029Z,0.20
2023-03-08T22:55:00.795Z,0.22
2023-03-08T22:57:27.455Z,0.25
2023-03-08T22:59:58.394Z,0.10
2023-03-08T23:02:25.501Z,0.30
2023-03-08T23:04:52.105Z,0.40
2023-03-08T23:07:18.868Z,0.15
2023-03-08T23:09:45.507Z,0.50
2023-03-08T23:12:12.228Z,0.13
2023-03-08T23:14:38.874Z,0.30
2023-03-08T23:17:05.765Z,0.28
2023-03-08T23:19:32.330Z,0.10
2023-03-08T23:21:59.048Z,0.22
